Okok Point, AK

7:28 AM AKST on December 04, 2016 (GMT -0900)
ASOS_HFM | | Change Station

Elev 150 ft 66.98 °N, 160.43 °W | Updated 23 minutes ago

Clear
Clear
-24 °F
Feels Like -24 °F
N
3
Wind Variable Wind from East
Gusts 0.0 mph

Today
High -- | Low -- °F
--% Chance of Precip.
Yesterday
High -- | Low -- °F
Precip. -- in
Pressure 30.95 in
Visibility 10.0 miles
Clouds Clear
Windchill -24 °F
Dew Point -27 °F
Humidity 82%
Rainfall in
Snow Depth Not available.
12:04 PM 3:00 PM
Waxing Crescent, 23% visible
METAR PAIK 041601Z AUTO 00000KT 10SM CLR M30/M33 A3080 RMK AO2 SLP481 T13001328 FZRANO
Pressure 30.95 in
Visibility 10.0 miles
Clouds Clear
Windchill -24 °F
Dew Point -27 °F
Humidity 82%
Rainfall in
Snow Depth Not available.
12:04 PM 3:00 PM
Waxing Crescent, 23% visible
METAR PAIK 041601Z AUTO 00000KT 10SM CLR M30/M33 A3080 RMK AO2 SLP481 T13001328 FZRANO

10-Day Weather Forecast

Almanac

Astronomy

Dec. 04, 2016 Rise Set
Actual Time
Civil Twilight
Nautical Twilight
Astronomical Twilight
Moon
Length of Visible Light
Length of Day
Tomorrow will be .
, % of the Moon is Illuminated

Today's Extremes

State Highs State Lows

Community

WunderPhotos

Upload Photos

1,955,617 photos uploaded!

WunderBlog® & News

Nearby

Air Quality

  Air Quality AQ Index Pollutant
Not available.

Snow Depth

Station Depth Elevation

Earthquake Activity

City Distance Mag. Time & Date
Minimum magnitude displayed is 2.5.

Coastal Water Temperatures

Place Temperature

Stations

Nearby Weather Stations

Station Location Temp. Windchill Dew Point Humidity Wind Precip. Elev Updated Type
                   

Watches & Warnings

There are currently no watches in effect.